Nearby METAR Reports

 

KSJC - San Jose, California, USA
Distance from station: NE 14km
Updated: 19/05/2024 07:53
Clear
Clear
 Wind from SSE
Wind: SSE 17 km/h
Temperature: 13°C
Dew Point: 8°C
Humidity: 72%
Barometer: 1016.3 hPa
Clouds: Clear
Visibility: 16 km
2024/05/19 10:53 KSJC 191053Z AUTO 16009KT 10SM CLR 13/08 A3001 RMK AO2 SLP161 T01280083 $
KNUQ - Moffett Nas/Mtn, California, USA
Distance from station: N 14km
Updated: 19/05/2024 07:55
Overcast
Overcast
 Wind from varies
Wind: varies 7 km/h
Temperature: 12°C
Dew Point: 9°C
Humidity: 82%
Barometer: 1016.3 hPa
Clouds: Overcast
Visibility: 14 km
Cloud details: Overcast 1494 m
2024/05/19 10:55 KNUQ 191055Z AUTO VRB04KT 9SM OVC049 12/09 A3001 RMK AO2
 
KPAO - Palo Alto, California, USA
Distance from station: NNW 23km
Updated: 19/05/2024 00:47
NOT Current
Clear
Clear
 Wind from WSW
Wind: WSW 9 km/h
Temperature: 14°C
Dew Point: 10°C
Humidity: 77%
Barometer: 1014.9 hPa
Clouds: Clear
Visibility: 16 km
2024/05/19 03:47 KPAO 190347Z 24005KT 10SM SKC 14/10 A2997 RMK LAST
KRHV - San Jose/Reid, California, USA
Distance from station: ENE 19km
Updated: 19/05/2024 01:55
NOT Current
Clear
Clear
 Wind from N
Wind: N 9 km/h
Temperature: 16°C
Dew Point: 11°C
Humidity: 72%
Barometer: 1015.6 hPa
Clouds: Clear
Visibility: 16 km
2024/05/19 04:55 KRHV 190455Z 01005KT 10SM SKC 16/11 A2999 RMK LAST
 
KOAK - Oakland, California, USA
Distance from station: NNW 50km
Updated: 19/05/2024 07:53
Few Clouds
Few Clouds
 Wind from W
Wind: W 11 km/h
Temperature: 12°C
Dew Point: 9°C
Humidity: 82%
Barometer: 1016.6 hPa
Clouds: Few Clouds
Visibility: 16 km
Cloud details: Few Clouds 610 m
2024/05/19 10:53 KOAK 191053Z 26006KT 10SM FEW020 12/09 A3002 RMK AO2 SLP165 T01220094
KSQL - San Carlos Airpo, California, USA
Distance from station: NW 34km
Updated: 19/05/2024 07:55
Partly cloudy
Partly cloudy
 Wind from SW
Wind: SW 7 km/h
Temperature: 12°C
Dew Point: 9°C
Humidity: 82%
Barometer: 1016.6 hPa
Clouds: Partly cloudy
Visibility: 13 km
Cloud details: Partly cloudy 457 m
2024/05/19 10:55 KSQL 191055Z AUTO 23004KT 8SM SCT015 12/09 A3002 RMK AO2
 
KSFO - San Francisco, California, USA
Distance from station: NW 49km
Updated: 19/05/2024 07:56
Few Clouds
Few Clouds
 Wind from WSW
Wind: WSW 11 km/h
Temperature: 12°C
Dew Point: 8°C
Humidity: 77%
Barometer: 1016.3 hPa
Clouds: Few Clouds
Visibility: 16 km
Cloud details: Few Clouds 457 m
2024/05/19 10:56 KSFO 191056Z 25006KT 10SM FEW015 12/08 A3001 RMK AO2 SLP162 T01220078 $
KE16 - San Martin, California, USA
Distance from station: ESE 43km
Updated: 19/05/2024 07:55
Overcast
Overcast
 Wind from S
Wind: S 7 km/h
Temperature: 12°C
Dew Point: 9°C
Humidity: 82%
Barometer: 1017.6 hPa
Clouds: Overcast
Visibility: 16 km
Cloud details: Overcast 488 m
2024/05/19 10:55 KE16 191055Z AUTO 18004KT 10SM OVC016 12/09 A3005 RMK AO2
 
KWVI - Watsonville, California, USA
Distance from station: SSE 44km
Updated: 19/05/2024 07:53
Overcast
Overcast
 Wind from W
Wind: W 6 km/h
Temperature: 11°C
Dew Point: 9°C
Humidity: 88%
Barometer: 1017.6 hPa
Clouds: Overcast
Visibility: 16 km
Cloud details: Overcast 366 m
2024/05/19 10:53 KWVI 191053Z AUTO 26003KT 10SM OVC012 11/09 A3005 RMK AO2 SLP174 T01110094
KHAF - Half Moon Bay, California, USA
Distance from station: WNW 50km
Updated: 19/05/2024 07:55
Mist, Overcast
Mist, Overcast
 Wind from SSW
Wind: SSW 7 km/h
Temperature: 11°C
Dew Point: 9°C
Humidity: 88%
Barometer: 1017.3 hPa
Summary: Mist
Clouds: Overcast
Visibility: 8 km
Cloud details: Overcast 549 m
2024/05/19 10:55 KHAF 191055Z AUTO 21004KT 5SM BR OVC018 11/09 A3004 RMK AO2
 
KHWD - Hayward, California, USA
Distance from station: N 44km
Updated: 19/05/2024 07:54
Overcast
Overcast
 Wind from WSW
Wind: WSW 15 km/h
Temperature: 14°C
Dew Point: 9°C
Humidity: 72%
Barometer: 1015.9 hPa
Clouds: Overcast
Visibility: 16 km
Cloud details: Overcast 518 m
2024/05/19 10:54 KHWD 191054Z AUTO 25008KT 10SM OVC017 14/09 A3000 RMK AO2 SLP169 T01440094
KLVK - Livermore, California, USA
Distance from station: NNE 51km
Updated: 19/05/2024 07:53
Few Clouds
Few Clouds
 Wind from W
Wind: W 9 km/h
Temperature: 11°C
Dew Point: 8°C
Humidity: 82%
Barometer: 1015.6 hPa
Clouds: Few Clouds
Visibility: 16 km
Cloud details: Few Clouds 579 m
2024/05/19 10:53 KLVK 191053Z AUTO 26005KT 10SM FEW019 11/08 A2999 RMK AO2 SLP151 T01060083